Time;durP1;ratioP1;P1;durP2;ratioP2;P2;SDS_P1;SDS_P2;PMS_P1;PMS_P2;Temp;Humidity;BMP_temperature;BMP_pressure;BME280_temperature;BME280_humidity;BME280_pressure;Samples;Min_cycle;Max_cycle;Signal;HPM_P1;HPM_P2
2021/12/16 00:01:41;;;;;;;21.00;18.13;;;;;;;;;;4898326;29;20044;-70
2021/12/16 00:11:14;;;;;;;23.67;21.23;;;;;;;;;;4902140;29;20032;-70
2021/12/16 00:30:27;;;;;;;24.60;20.60;;;;;;;;;;4913178;29;20040;-70
2021/12/16 00:33:12;;;;;;;24.08;20.75;;;;;;;;;;4896397;29;20440;-70
2021/12/16 00:35:40;;;;;;;26.95;21.13;;;;;;;;;;4915353;29;20054;-70
2021/12/16 00:38:05;;;;;;;22.95;19.05;;;;;;;;;;4898983;29;20563;-70
2021/12/16 00:40:32;;;;;;;25.50;20.80;;;;;;;;;;4897583;29;20032;-70
2021/12/16 00:43:10;;;;;;;24.45;21.17;;;;;;;;;;4914495;29;20091;-70
2021/12/16 00:45:45;;;;;;;21.02;18.75;;;;;;;;;;4895297;29;20412;-70
2021/12/16 00:56:04;;;;;;;26.50;22.13;;;;;;;;;;4915595;29;20401;-71
2021/12/16 00:58:41;;;;;;;32.80;22.20;;;;;;;;;;4893584;29;20041;-70
2021/12/16 01:52:47;;;;;;;38.08;24.50;;;;;;;;;;4896154;29;20045;-70
2021/12/16 01:55:19;;;;;;;46.50;25.98;;;;;;;;;;4903204;29;20486;-70
2021/12/16 01:57:50;;;;;;;38.95;24.10;;;;;;;;;;4893695;29;20048;-70
2021/12/16 02:03:43;;;;;;;40.30;24.83;;;;;;;;;;4893973;29;20076;-70
2021/12/16 02:08:47;;;;;;;46.10;26.83;;;;;;;;;;4891023;29;20408;-70
2021/12/16 02:31:12;;;;;;;40.17;25.63;;;;;;;;;;4894973;29;20052;-70
2021/12/16 02:35:48;;;;;;;34.20;23.92;;;;;;;;;;4894696;29;20064;-70
2021/12/16 02:38:16;;;;;;;;;;;;;;;;;;4896003;29;20351;-70
2021/12/16 02:40:45;;;;;;;36.15;24.30;;;;;;;;;;4908217;29;19919;-70
2021/12/16 02:48:29;;;;;;;47.65;26.85;;;;;;;;;;4905831;29;20045;-70
2021/12/16 02:51:03;;;;;;;36.92;23.50;;;;;;;;;;4896964;29;20041;-70
2021/12/16 02:53:29;;;;;;;42.80;26.23;;;;;;;;;;4893916;29;20040;-70
2021/12/16 02:55:55;;;;;;;36.97;25.40;;;;;;;;;;4894925;29;20040;-70
2021/12/16 02:58:22;;;;;;;39.63;25.05;;;;;;;;;;4892323;29;20071;-70
2021/12/16 03:00:58;;;;;;;38.55;24.40;;;;;;;;;;4893400;29;20043;-70
2021/12/16 03:03:24;;;;;;;43.40;25.02;;;;;;;;;;4905296;29;20037;-70
2021/12/16 03:05:50;;;;;;;40.63;25.30;;;;;;;;;;4877438;29;20126;-70
2021/12/16 03:08:16;;;;;;;39.05;25.17;;;;;;;;;;4908111;29;20045;-70
2021/12/16 03:16:48;;;;;;;39.88;25.17;;;;;;;;;;4872182;29;20053;-70
2021/12/16 03:21:39;;;;;;;40.58;26.77;;;;;;;;;;4893537;29;20305;-70
2021/12/16 03:32:23;;;;;;;42.58;26.38;;;;;;;;;;4900356;29;20049;-70
2021/12/16 03:35:25;;;;;;;44.30;26.10;;;;;;;;;;4908432;29;20512;-70
2021/12/16 03:37:50;;;;;;;41.33;26.60;;;;;;;;;;4877041;29;20064;-70
2021/12/16 03:40:17;;;;;;;48.70;26.80;;;;;;;;;;4886316;29;20043;-70
2021/12/16 03:43:03;;;;;;;38.58;25.25;;;;;;;;;;4906844;29;20493;-70
2021/12/16 03:48:46;;;;;;;48.38;28.27;;;;;;;;;;4887494;29;20083;-70
2021/12/16 03:51:37;;;;;;;43.92;25.23;;;;;;;;;;4898966;29;20054;-70
2021/12/16 03:54:12;;;;;;;46.40;27.27;;;;;;;;;;4880211;29;20053;-70
2021/12/16 03:56:40;;;;;;;47.13;26.50;;;;;;;;;;4908339;29;20124;-70
2021/12/16 03:59:18;;;;;;;50.67;29.60;;;;;;;;;;4903170;29;20044;-70
2021/12/16 04:02:02;;;;;;;49.95;27.90;;;;;;;;;;4882072;29;20050;-70
2021/12/16 04:04:36;;;;;;;44.75;26.63;;;;;;;;;;4886482;29;20044;-70
2021/12/16 04:07:04;;;;;;;48.22;27.70;;;;;;;;;;4889104;29;20088;-70
2021/12/16 04:09:35;;;;;;;43.08;26.73;;;;;;;;;;4906549;29;20044;-70
2021/12/16 04:12:24;;;;;;;35.28;24.55;;;;;;;;;;4908150;29;20055;-70
2021/12/16 04:14:54;;;;;;;38.38;24.63;;;;;;;;;;4906450;29;20052;-70
2021/12/16 04:17:22;;;;;;;32.63;22.55;;;;;;;;;;4897325;29;20457;-70
2021/12/16 04:19:56;;;;;;;30.88;22.25;;;;;;;;;;4907690;29;20036;-70
2021/12/16 04:22:30;;;;;;;36.38;23.65;;;;;;;;;;4892386;29;20032;-70
2021/12/16 04:25:02;;;;;;;31.40;21.55;;;;;;;;;;4902758;29;20091;-70
2021/12/16 04:27:32;;;;;;;37.38;24.92;;;;;;;;;;4895625;29;20064;-70
2021/12/16 04:29:58;;;;;;;31.25;22.10;;;;;;;;;;4907070;29;20292;-70
2021/12/16 04:32:24;;;;;;;36.65;23.35;;;;;;;;;;4884522;29;20521;-70
2021/12/16 04:34:51;;;;;;;33.70;22.13;;;;;;;;;;4881934;29;20037;-71
2021/12/16 04:37:17;;;;;;;35.38;23.02;;;;;;;;;;4891702;29;20045;-70
2021/12/16 04:39:46;;;;;;;31.52;23.17;;;;;;;;;;4884013;29;20088;-70
2021/12/16 04:42:16;;;;;;;32.58;23.33;;;;;;;;;;4879686;29;20107;-70
2021/12/16 04:44:46;;;;;;;30.73;20.77;;;;;;;;;;4862957;29;20037;-70
2021/12/16 04:47:12;;;;;;;34.60;22.45;;;;;;;;;;4903390;29;20096;-70
2021/12/16 04:49:39;;;;;;;27.92;21.10;;;;;;;;;;4904335;29;20040;-70
2021/12/16 04:52:11;;;;;;;29.15;20.85;;;;;;;;;;4882852;29;20051;-70
2021/12/16 04:54:39;;;;;;;28.23;21.30;;;;;;;;;;4876365;29;20042;-70
2021/12/16 04:57:08;;;;;;;25.70;22.15;;;;;;;;;;4894941;29;20105;-70
2021/12/16 04:59:36;;;;;;;29.85;22.10;;;;;;;;;;4896780;29;20095;-70
2021/12/16 05:02:12;;;;;;;26.52;20.70;;;;;;;;;;4880285;29;20076;-70
2021/12/16 05:04:56;;;;;;;25.33;19.92;;;;;;;;;;4888719;29;20044;-70
2021/12/16 05:07:22;;;;;;;25.45;19.92;;;;;;;;;;4904362;29;20042;-70
2021/12/16 05:10:12;;;;;;;26.63;19.83;;;;;;;;;;4890359;29;20055;-70
2021/12/16 05:12:49;;;;;;;26.02;20.48;;;;;;;;;;4891932;29;20037;-70
2021/12/16 05:15:18;;;;;;;24.58;18.35;;;;;;;;;;4905391;29;20063;-70
2021/12/16 05:17:49;;;;;;;23.63;19.40;;;;;;;;;;4902847;29;20047;-70
2021/12/16 05:20:24;;;;;;;24.02;20.15;;;;;;;;;;4898467;29;20075;-70
2021/12/16 05:28:17;;;;;;;27.05;19.52;;;;;;;;;;4906240;29;20417;-70
2021/12/16 05:30:43;;;;;;;25.30;19.35;;;;;;;;;;4907601;29;20325;-70
2021/12/16 05:33:09;;;;;;;24.52;18.60;;;;;;;;;;4907983;29;20059;-70
2021/12/16 05:35:53;;;;;;;21.25;17.80;;;;;;;;;;4908037;29;20131;-70
2021/12/16 05:38:20;;;;;;;22.05;17.10;;;;;;;;;;4905118;29;20096;-70
2021/12/16 05:40:46;;;;;;;20.83;17.80;;;;;;;;;;4902577;29;20060;-70
2021/12/16 05:43:25;;;;;;;20.95;18.58;;;;;;;;;;4900290;29;20044;-70
2021/12/16 05:45:54;;;;;;;21.80;18.00;;;;;;;;;;4912332;29;20096;-70
2021/12/16 05:48:22;;;;;;;21.30;18.88;;;;;;;;;;4887520;29;20481;-70
2021/12/16 05:50:56;;;;;;;27.02;19.63;;;;;;;;;;4909427;29;20037;-69
2021/12/16 05:53:23;;;;;;;30.27;19.85;;;;;;;;;;4898089;29;20115;-69
2021/12/16 05:55:51;;;;;;;24.20;19.30;;;;;;;;;;4884636;29;20045;-69
2021/12/16 05:58:20;;;;;;;23.63;18.75;;;;;;;;;;4885611;29;20299;-70
2021/12/16 06:00:51;;;;;;;24.65;18.85;;;;;;;;;;4897739;29;20051;-69
2021/12/16 06:03:17;;;;;;;23.00;19.13;;;;;;;;;;4894982;29;20421;-69
2021/12/16 06:05:43;;;;;;;25.73;19.00;;;;;;;;;;4912133;29;20117;-70
2021/12/16 06:08:10;;;;;;;29.13;21.35;;;;;;;;;;4908642;29;20049;-70
2021/12/16 06:13:04;;;;;;;29.33;21.17;;;;;;;;;;4898560;29;20044;-69
2021/12/16 06:29:03;;;;;;;31.00;21.37;;;;;;;;;;4898385;29;20119;-70
2021/12/16 06:31:28;;;;;;;25.23;20.40;;;;;;;;;;4897961;29;20036;-69
2021/12/16 06:33:54;;;;;;;28.90;21.60;;;;;;;;;;4896860;29;20535;-70
2021/12/16 06:36:20;;;;;;;27.85;20.40;;;;;;;;;;4898522;29;20040;-69
2021/12/16 06:38:47;;;;;;;29.42;21.48;;;;;;;;;;4903185;29;20091;-71
2021/12/16 06:41:20;;;;;;;31.65;21.15;;;;;;;;;;4907273;29;20557;-69
2021/12/16 06:43:47;;;;;;;28.73;20.63;;;;;;;;;;4907046;29;20051;-69
2021/12/16 06:46:17;;;;;;;26.10;20.88;;;;;;;;;;4908616;29;20040;-69
2021/12/16 06:48:47;;;;;;;32.70;22.38;;;;;;;;;;4895735;29;20072;-69
2021/12/16 06:51:20;;;;;;;27.02;20.35;;;;;;;;;;4894487;29;20097;-70
2021/12/16 06:54:05;;;;;;;29.05;21.45;;;;;;;;;;4881819;29;20052;-69
2021/12/16 06:59:54;;;;;;;36.60;24.52;;;;;;;;;;4892236;29;20056;-69
2021/12/16 07:02:38;;;;;;;34.00;25.08;;;;;;;;;;4888614;29;20108;-70
2021/12/16 07:04:55;;;;;;;30.80;22.10;;;;;;;;;;4892686;29;20044;-70
2021/12/16 07:07:20;;;;;;;39.10;26.90;;;;;;;;;;4893276;29;20092;-70
2021/12/16 07:09:46;;;;;;;36.45;26.08;;;;;;;;;;4892599;29;20049;-68
2021/12/16 07:12:12;;;;;;;32.42;21.73;;;;;;;;;;4890663;29;20028;-68
2021/12/16 07:14:40;;;;;;;31.70;22.30;;;;;;;;;;4889925;29;20040;-68
2021/12/16 07:17:12;;;;;;;34.53;22.90;;;;;;;;;;4894785;29;20052;-68
2021/12/16 07:19:39;;;;;;;31.60;23.08;;;;;;;;;;4891538;29;20037;-68
2021/12/16 07:22:06;;;;;;;31.13;21.98;;;;;;;;;;4889365;29;20072;-68
2021/12/16 07:24:32;;;;;;;31.60;21.35;;;;;;;;;;4891134;29;20047;-68
2021/12/16 07:26:58;;;;;;;34.50;24.08;;;;;;;;;;4890668;29;20068;-68
2021/12/16 07:29:25;;;;;;;31.13;22.42;;;;;;;;;;4890705;29;20159;-68
2021/12/16 07:31:51;;;;;;;31.45;22.33;;;;;;;;;;4891897;29;20039;-68
2021/12/16 07:34:18;;;;;;;31.42;22.42;;;;;;;;;;4892504;29;20080;-68
2021/12/16 07:36:45;;;;;;;36.15;23.67;;;;;;;;;;4891731;29;20429;-68
2021/12/16 07:39:14;;;;;;;28.83;20.40;;;;;;;;;;4893241;29;20048;-68
2021/12/16 07:41:41;;;;;;;33.40;22.37;;;;;;;;;;4893632;29;20147;-68
2021/12/16 07:44:10;;;;;;;28.48;21.17;;;;;;;;;;4906521;29;20044;-68
2021/12/16 07:46:41;;;;;;;40.38;24.80;;;;;;;;;;4904908;29;20088;-68
2021/12/16 07:49:09;;;;;;;37.30;23.88;;;;;;;;;;4887833;29;20124;-68
2021/12/16 07:51:36;;;;;;;34.25;23.50;;;;;;;;;;4890222;29;20042;-68
2021/12/16 07:54:04;;;;;;;28.55;21.25;;;;;;;;;;4889790;29;20405;-68
2021/12/16 07:56:30;;;;;;;31.25;22.45;;;;;;;;;;4891097;29;20051;-68
2021/12/16 07:58:56;;;;;;;36.47;23.08;;;;;;;;;;4891644;29;20040;-68
2021/12/16 08:01:22;;;;;;;33.85;24.08;;;;;;;;;;4892159;29;20047;-68
2021/12/16 08:03:49;;;;;;;34.50;22.30;;;;;;;;;;4891144;29;20041;-68
2021/12/16 08:06:21;;;;;;;30.25;22.48;;;;;;;;;;4890700;29;20698;-68
2021/12/16 08:08:49;;;;;;;28.35;20.10;;;;;;;;;;4893490;29;20038;-69
2021/12/16 08:11:15;;;;;;;26.95;20.70;;;;;;;;;;4907009;29;20052;-68
2021/12/16 08:13:41;;;;;;;32.70;22.38;;;;;;;;;;4890156;29;20084;-68
2021/12/16 08:16:07;;;;;;;32.63;21.80;;;;;;;;;;4890989;29;20045;-68
2021/12/16 08:18:33;;;;;;;28.15;20.13;;;;;;;;;;4892148;29;20495;-68
2021/12/16 08:20:59;;;;;;;35.78;24.52;;;;;;;;;;4890580;29;20040;-68
2021/12/16 08:23:25;;;;;;;30.20;22.17;;;;;;;;;;4889413;29;20497;-68
2021/12/16 08:25:51;;;;;;;28.27;22.17;;;;;;;;;;4890670;29;20040;-68
2021/12/16 08:28:17;;;;;;;27.02;20.90;;;;;;;;;;4906345;29;20056;-67
2021/12/16 08:30:46;;;;;;;28.60;22.15;;;;;;;;;;4890901;29;20086;-68
2021/12/16 08:33:13;;;;;;;26.55;21.10;;;;;;;;;;4881665;29;20445;-67
2021/12/16 08:35:41;;;;;;;26.20;21.70;;;;;;;;;;4892102;29;20110;-68
2021/12/16 08:38:10;;;;;;;27.98;21.90;;;;;;;;;;4906935;29;20060;-68
2021/12/16 08:40:38;;;;;;;29.20;22.75;;;;;;;;;;4901859;29;20067;-69
2021/12/16 08:43:04;;;;;;;28.10;22.13;;;;;;;;;;4890756;29;20040;-68
2021/12/16 08:45:31;;;;;;;31.70;22.33;;;;;;;;;;4891262;29;20064;-69
2021/12/16 08:47:59;;;;;;;32.60;22.77;;;;;;;;;;4891098;29;20044;-68
2021/12/16 08:50:30;;;;;;;30.42;20.77;;;;;;;;;;4890798;29;20032;-68
2021/12/16 08:52:59;;;;;;;29.55;20.52;;;;;;;;;;4889085;29;20204;-67
2021/12/16 08:55:29;;;;;;;30.35;21.98;;;;;;;;;;4886729;29;20414;-69
2021/12/16 08:57:56;;;;;;;30.30;22.10;;;;;;;;;;4894934;29;20041;-67
2021/12/16 09:00:26;;;;;;;28.48;21.67;;;;;;;;;;4888672;29;20047;-68
2021/12/16 09:02:52;;;;;;;30.13;21.05;;;;;;;;;;4887463;29;20064;-68
2021/12/16 09:05:20;;;;;;;26.30;20.83;;;;;;;;;;4889752;29;20071;-68
2021/12/16 09:07:48;;;;;;;28.58;21.13;;;;;;;;;;4887533;29;20686;-68
2021/12/16 09:10:27;;;;;;;25.23;20.50;;;;;;;;;;4889050;29;20043;-70
2021/12/16 09:13:05;;;;;;;26.98;21.38;;;;;;;;;;4894631;29;20457;-68
2021/12/16 09:15:42;;;;;;;24.77;19.77;;;;;;;;;;4888141;29;20067;-68
2021/12/16 09:18:09;;;;;;;23.73;19.17;;;;;;;;;;4890083;29;20036;-68
2021/12/16 09:20:35;;;;;;;32.88;21.65;;;;;;;;;;4889784;29;20032;-68
2021/12/16 09:23:01;;;;;;;26.95;20.70;;;;;;;;;;4884592;29;20047;-68
2021/12/16 09:25:27;;;;;;;28.25;21.27;;;;;;;;;;4889050;29;20040;-67
2021/12/16 09:27:53;;;;;;;26.35;19.73;;;;;;;;;;4904303;29;20046;-68
2021/12/16 09:30:23;;;;;;;26.13;20.05;;;;;;;;;;4890957;29;20265;-68
2021/12/16 09:32:52;;;;;;;24.58;20.35;;;;;;;;;;4890246;29;20080;-68
2021/12/16 09:35:20;;;;;;;28.10;21.10;;;;;;;;;;4890355;29;20492;-67
2021/12/16 09:37:46;;;;;;;27.67;20.23;;;;;;;;;;4891148;29;20040;-67
2021/12/16 09:40:19;;;;;;;22.50;18.38;;;;;;;;;;4890736;29;20283;-67
2021/12/16 09:42:45;;;;;;;27.10;19.42;;;;;;;;;;4891690;29;20131;-68
2021/12/16 09:45:13;;;;;;;26.33;18.83;;;;;;;;;;4889719;29;20104;-68
2021/12/16 09:47:39;;;;;;;27.45;20.42;;;;;;;;;;4887177;29;20044;-67
2021/12/16 09:50:08;;;;;;;27.17;19.77;;;;;;;;;;4890629;29;20032;-67
2021/12/16 09:52:34;;;;;;;27.95;20.25;;;;;;;;;;4889855;29;21329;-68
2021/12/16 09:54:59;;;;;;;30.73;19.98;;;;;;;;;;4890139;29;20507;-69
2021/12/16 09:57:25;;;;;;;25.63;20.13;;;;;;;;;;4891747;29;20040;-69
2021/12/16 09:59:51;;;;;;;23.45;19.15;;;;;;;;;;4885358;29;20073;-68
2021/12/16 10:02:19;;;;;;;24.30;18.50;;;;;;;;;;4902855;29;20048;-68
2021/12/16 10:04:45;;;;;;;29.52;19.10;;;;;;;;;;4889386;29;20048;-68
2021/12/16 10:07:18;;;;;;;26.60;19.65;;;;;;;;;;4906006;29;20068;-68
2021/12/16 10:09:46;;;;;;;29.83;20.00;;;;;;;;;;4891619;29;20124;-68
2021/12/16 10:12:16;;;;;;;24.67;20.60;;;;;;;;;;4888462;29;20037;-68
2021/12/16 10:17:30;;;;;;;23.20;18.90;;;;;;;;;;4890024;29;20047;-68
2021/12/16 10:20:00;;;;;;;23.95;19.25;;;;;;;;;;4888215;29;20398;-68
2021/12/16 10:22:34;;;;;;;25.50;19.02;;;;;;;;;;4894795;29;20055;-68
2021/12/16 10:25:21;;;;;;;24.83;18.92;;;;;;;;;;4907555;29;20044;-68
2021/12/16 10:28:12;;;;;;;23.95;18.90;;;;;;;;;;4891576;29;20542;-68
2021/12/16 10:30:46;;;;;;;25.98;19.83;;;;;;;;;;4893087;29;20044;-68
2021/12/16 10:33:20;;;;;;;23.60;18.70;;;;;;;;;;4893924;29;20112;-68
2021/12/16 10:35:47;;;;;;;25.65;18.33;;;;;;;;;;4893101;29;20032;-68
2021/12/16 10:38:18;;;;;;;25.58;18.20;;;;;;;;;;4893820;29;20110;-67
2021/12/16 10:40:51;;;;;;;23.05;19.02;;;;;;;;;;4894242;29;20540;-68
2021/12/16 10:43:40;;;;;;;20.60;18.20;;;;;;;;;;4892746;29;20068;-68
2021/12/16 10:46:05;;;;;;;20.10;17.55;;;;;;;;;;4892927;29;20220;-67
2021/12/16 10:48:35;;;;;;;20.83;18.05;;;;;;;;;;4893431;29;20051;-68
2021/12/16 10:51:03;;;;;;;26.30;18.80;;;;;;;;;;4893946;29;20497;-68
2021/12/16 10:54:01;;;;;;;24.23;19.90;;;;;;;;;;4872797;29;20044;-68
2021/12/16 10:56:38;;;;;;;19.70;17.73;;;;;;;;;;4896450;29;20428;-68
2021/12/16 10:59:08;;;;;;;20.52;17.73;;;;;;;;;;4894034;29;20483;-68
2021/12/16 11:01:51;;;;;;;24.20;19.73;;;;;;;;;;4892606;29;20063;-68
2021/12/16 11:04:26;;;;;;;23.23;20.42;;;;;;;;;;4893775;29;20071;-68
2021/12/16 11:07:02;;;;;;;22.80;18.90;;;;;;;;;;4894211;29;20083;-68
2021/12/16 11:09:50;;;;;;;25.80;18.95;;;;;;;;;;4892642;29;20067;-68
2021/12/16 11:12:30;;;;;;;22.90;19.38;;;;;;;;;;4891304;29;20040;-68
2021/12/16 11:14:56;;;;;;;21.58;18.70;;;;;;;;;;4894605;29;20045;-68
2021/12/16 11:17:25;;;;;;;21.73;18.73;;;;;;;;;;4892332;29;20136;-68
2021/12/16 11:19:58;;;;;;;26.98;19.92;;;;;;;;;;4888949;29;20036;-69
2021/12/16 11:22:31;;;;;;;24.20;20.20;;;;;;;;;;4889596;29;20092;-69
2021/12/16 11:25:09;;;;;;;22.63;19.75;;;;;;;;;;4892365;29;20041;-68
2021/12/16 11:27:36;;;;;;;27.45;22.00;;;;;;;;;;4888825;29;20042;-68
2021/12/16 11:30:30;;;;;;;20.90;18.73;;;;;;;;;;4893745;29;20355;-68
2021/12/16 11:33:08;;;;;;;21.25;19.00;;;;;;;;;;4893041;29;20384;-68
2021/12/16 11:35:42;;;;;;;30.15;22.73;;;;;;;;;;4903025;29;20033;-69
2021/12/16 11:38:23;;;;;;;25.77;22.13;;;;;;;;;;4878505;29;20055;-69
2021/12/16 11:41:00;;;;;;;29.42;26.25;;;;;;;;;;4904847;29;20146;-68
2021/12/16 11:43:37;;;;;;;22.65;19.77;;;;;;;;;;4887564;29;20048;-69
2021/12/16 11:46:10;;;;;;;21.10;18.88;;;;;;;;;;4889558;29;20037;-69
2021/12/16 11:48:40;;;;;;;22.20;19.00;;;;;;;;;;4889637;29;20068;-70
2021/12/16 11:51:13;;;;;;;21.83;19.52;;;;;;;;;;4891683;29;20131;-68
2021/12/16 11:53:52;;;;;;;21.83;19.40;;;;;;;;;;4908324;29;20185;-69
2021/12/16 11:56:19;;;;;;;21.50;19.30;;;;;;;;;;4890225;29;20040;-69
2021/12/16 11:58:46;;;;;;;22.42;19.50;;;;;;;;;;4893584;29;20098;-69
2021/12/16 12:01:19;;;;;;;21.92;19.63;;;;;;;;;;4893129;29;20075;-69
2021/12/16 12:03:45;;;;;;;21.20;18.70;;;;;;;;;;4889941;29;20088;-69
2021/12/16 12:06:23;;;;;;;21.02;18.80;;;;;;;;;;4890752;29;20036;-69
2021/12/16 12:08:50;;;;;;;24.50;18.60;;;;;;;;;;4886834;29;20092;-69
2021/12/16 12:11:23;;;;;;;21.50;18.83;;;;;;;;;;4892549;29;20087;-69
2021/12/16 12:13:54;;;;;;;20.85;18.48;;;;;;;;;;4887095;29;20132;-69
2021/12/16 12:16:34;;;;;;;23.52;19.58;;;;;;;;;;4886119;29;20044;-69
2021/12/16 12:19:14;;;;;;;20.40;18.23;;;;;;;;;;4889579;29;20144;-69
2021/12/16 12:21:40;;;;;;;23.23;19.90;;;;;;;;;;4889977;29;20424;-69
2021/12/16 12:24:18;;;;;;;21.45;19.15;;;;;;;;;;4887075;29;20040;-69
2021/12/16 12:26:54;;;;;;;21.02;18.42;;;;;;;;;;4890924;29;20100;-69
2021/12/16 12:29:23;;;;;;;22.38;19.35;;;;;;;;;;4889215;29;20036;-69
2021/12/16 12:32:10;;;;;;;21.63;19.33;;;;;;;;;;4881959;29;20108;-69
2021/12/16 12:34:38;;;;;;;19.48;17.33;;;;;;;;;;4889454;29;20025;-69
2021/12/16 12:37:07;;;;;;;19.58;17.67;;;;;;;;;;4890168;29;20045;-69
2021/12/16 12:39:39;;;;;;;20.55;18.55;;;;;;;;;;4890676;29;20051;-69
2021/12/16 12:42:06;;;;;;;19.70;17.63;;;;;;;;;;4871760;29;20492;-67
2021/12/16 12:44:33;;;;;;;21.63;19.33;;;;;;;;;;4888842;29;20036;-68
2021/12/16 12:47:02;;;;;;;19.83;17.73;;;;;;;;;;4889284;29;20555;-67
2021/12/16 12:49:29;;;;;;;20.70;18.50;;;;;;;;;;4888920;29;20132;-68
2021/12/16 12:52:23;;;;;;;20.40;18.33;;;;;;;;;;4885098;29;20044;-67
2021/12/16 12:55:04;;;;;;;21.90;17.58;;;;;;;;;;4887339;29;20052;-68
2021/12/16 12:57:35;;;;;;;21.38;18.23;;;;;;;;;;4889574;29;20513;-67
2021/12/16 13:00:05;;;;;;;23.40;18.98;;;;;;;;;;4886546;29;20123;-69
2021/12/16 13:02:35;;;;;;;19.35;17.30;;;;;;;;;;4886126;29;20401;-68
2021/12/16 13:05:10;;;;;;;20.52;17.70;;;;;;;;;;4883710;29;20389;-68
2021/12/16 13:07:58;;;;;;;21.20;17.33;;;;;;;;;;4887208;29;20505;-68
2021/12/16 13:10:31;;;;;;;19.33;17.20;;;;;;;;;;4884103;29;20450;-68
2021/12/16 13:16:20;;;;;;;18.63;16.83;;;;;;;;;;4889914;29;20044;-68
2021/12/16 13:29:52;;;;;;;19.15;17.35;;;;;;;;;;4900306;29;20048;-68
2021/12/16 13:32:28;;;;;;;20.75;18.60;;;;;;;;;;4888232;29;20115;-69
2021/12/16 13:37:43;;;;;;;18.88;16.65;;;;;;;;;;4899031;29;20249;-68
2021/12/16 13:40:27;;;;;;;19.58;17.60;;;;;;;;;;4888489;29;20214;-68
2021/12/16 13:42:56;;;;;;;19.83;17.85;;;;;;;;;;4888510;29;20135;-68
2021/12/16 13:45:29;;;;;;;20.37;18.20;;;;;;;;;;4885667;29;20043;-68
2021/12/16 13:48:29;;;;;;;21.83;18.90;;;;;;;;;;4882240;29;20469;-68
2021/12/16 14:03:25;;;;;;;20.13;17.50;;;;;;;;;;4865632;29;20053;-68
2021/12/16 14:05:58;;;;;;;22.95;17.25;;;;;;;;;;4872501;29;20500;-68
2021/12/16 14:08:35;;;;;;;19.70;17.70;;;;;;;;;;4864247;29;20049;-69
2021/12/16 14:11:16;;;;;;;21.35;18.00;;;;;;;;;;4864954;29;20053;-69
2021/12/16 14:26:05;;;;;;;26.50;21.13;;;;;;;;;;4871664;29;20579;-69
2021/12/16 14:31:50;;;;;;;19.05;17.17;;;;;;;;;;4903622;29;20048;-68
2021/12/16 14:48:20;;;;;;;20.83;16.20;;;;;;;;;;4907239;29;20052;-69
2021/12/16 14:50:49;;;;;;;19.35;15.57;;;;;;;;;;4906622;29;20056;-68
2021/12/16 14:53:20;;;;;;;20.38;16.45;;;;;;;;;;4893140;29;20089;-69
2021/12/16 14:55:47;;;;;;;21.30;16.80;;;;;;;;;;4888116;29;20047;-69
2021/12/16 14:58:14;;;;;;;21.08;17.27;;;;;;;;;;4890863;29;20040;-69
2021/12/16 15:00:52;;;;;;;18.35;16.38;;;;;;;;;;4888758;29;20505;-69
2021/12/16 15:03:26;;;;;;;18.42;16.50;;;;;;;;;;4887102;29;20124;-69
2021/12/16 15:05:57;;;;;;;23.63;17.65;;;;;;;;;;4889886;29;20040;-70
2021/12/16 15:09:31;;;;;;;19.38;16.58;;;;;;;;;;4892260;29;20043;-69
2021/12/16 15:11:45;;;;;;;20.55;15.52;;;;;;;;;;4884173;29;20128;-69
2021/12/16 15:14:30;;;;;;;18.90;16.42;;;;;;;;;;4891469;29;20437;-69
2021/12/16 15:17:09;;;;;;;20.48;16.50;;;;;;;;;;4891908;29;20060;-69
2021/12/16 15:39:11;;;;;;;26.92;19.65;;;;;;;;;;4894590;29;20064;-69
2021/12/16 15:44:21;;;;;;;24.27;17.58;;;;;;;;;;4902266;29;19995;-69
2021/12/16 15:46:49;;;;;;;34.72;24.73;;;;;;;;;;4890297;29;20127;-69
2021/12/16 15:49:16;;;;;;;27.48;21.10;;;;;;;;;;4894002;29;20048;-69
2021/12/16 15:51:41;;;;;;;23.75;20.40;;;;;;;;;;4891806;29;20040;-69
2021/12/16 15:54:10;;;;;;;31.83;25.30;;;;;;;;;;4888106;29;20063;-70
2021/12/16 15:56:40;;;;;;;31.80;23.20;;;;;;;;;;4894624;29;20481;-70
2021/12/16 15:59:11;;;;;;;24.55;19.90;;;;;;;;;;4908251;29;20040;-69
2021/12/16 16:01:43;;;;;;;24.60;19.52;;;;;;;;;;4891270;29;20249;-70
2021/12/16 16:04:18;;;;;;;27.15;18.90;;;;;;;;;;4893333;29;20266;-70
2021/12/16 16:06:48;;;;;;;20.55;17.80;;;;;;;;;;4894445;29;20095;-70
2021/12/16 16:09:15;;;;;;;;;;;;;;;;;;4894307;29;20036;-69
2021/12/16 16:11:47;;;;;;;20.73;17.23;;;;;;;;;;4892349;29;20198;-70
2021/12/16 16:14:16;;;;;;;20.95;17.55;;;;;;;;;;4894184;29;20497;-70
2021/12/16 16:16:49;;;;;;;22.15;18.00;;;;;;;;;;4894188;29;20048;-70
2021/12/16 16:19:21;;;;;;;23.60;20.58;;;;;;;;;;4894020;29;20044;-70
2021/12/16 16:21:50;;;;;;;23.02;18.75;;;;;;;;;;4907096;29;20115;-70
2021/12/16 16:24:23;;;;;;;24.45;19.13;;;;;;;;;;4893699;29;20155;-70
2021/12/16 16:26:53;;;;;;;23.20;19.60;;;;;;;;;;4892461;29;20313;-72
2021/12/16 16:29:19;;;;;;;;;;;;;;;;;;4903879;29;20048;-71
2021/12/16 16:31:46;;;;;;;25.70;22.40;;;;;;;;;;4887874;29;19923;-71
2021/12/16 16:34:17;;;;;;;25.65;18.48;;;;;;;;;;4899007;29;20549;-71
2021/12/16 16:36:54;;;;;;;35.40;21.65;;;;;;;;;;4887870;29;20043;-68
2021/12/16 16:39:24;;;;;;;49.47;25.38;;;;;;;;;;4890194;29;20465;-70
2021/12/16 16:41:54;;;;;;;37.42;22.13;;;;;;;;;;4882354;29;20500;-70
2021/12/16 16:44:23;;;;;;;33.33;21.63;;;;;;;;;;4888554;29;20076;-70
2021/12/16 16:47:24;;;;;;;26.42;21.50;;;;;;;;;;4901260;29;20064;-70
2021/12/16 16:49:53;;;;;;;28.50;20.92;;;;;;;;;;4891262;29;20055;-70
2021/12/16 16:52:30;;;;;;;28.17;20.70;;;;;;;;;;4897697;29;20421;-70
2021/12/16 16:55:16;;;;;;;33.15;21.13;;;;;;;;;;4888471;29;20041;-69
2021/12/16 16:57:47;;;;;;;25.02;19.90;;;;;;;;;;4890472;29;20036;-69
2021/12/16 17:00:18;;;;;;;27.90;20.10;;;;;;;;;;4903180;29;20044;-70
2021/12/16 17:02:50;;;;;;;27.77;20.92;;;;;;;;;;4900416;29;20040;-70
2021/12/16 17:05:27;;;;;;;30.00;21.45;;;;;;;;;;4879312;29;20060;-69
2021/12/16 17:07:55;;;;;;;29.27;22.42;;;;;;;;;;4889403;29;20318;-69
2021/12/16 17:10:31;;;;;;;32.13;22.40;;;;;;;;;;4894831;29;20048;-70
2021/12/16 17:13:18;;;;;;;30.60;20.92;;;;;;;;;;4889174;29;20040;-70
2021/12/16 17:17:12;;;;;;;27.52;20.67;;;;;;;;;;4885019;29;20508;-70
2021/12/16 17:18:33;;;;;;;27.80;21.02;;;;;;;;;;4890180;29;20099;-70
2021/12/16 17:21:11;;;;;;;33.53;24.13;;;;;;;;;;4874275;29;20128;-71
2021/12/16 17:23:37;;;;;;;27.35;20.15;;;;;;;;;;4889714;29;20384;-71
2021/12/16 17:26:19;;;;;;;26.35;21.33;;;;;;;;;;4888756;29;20052;-71
2021/12/16 17:28:51;;;;;;;29.55;24.13;;;;;;;;;;4895413;29;20048;-70
2021/12/16 17:31:29;;;;;;;27.30;20.60;;;;;;;;;;4889696;29;20041;-70
2021/12/16 17:34:07;;;;;;;41.28;30.67;;;;;;;;;;4897637;29;20090;-71
2021/12/16 17:36:33;;;;;;;30.42;24.75;;;;;;;;;;4888572;29;20033;-71
2021/12/16 17:39:12;;;;;;;43.47;31.48;;;;;;;;;;4889248;29;20043;-71
2021/12/16 17:41:39;;;;;;;45.05;32.13;;;;;;;;;;4889336;29;20041;-69
2021/12/16 17:44:11;;;;;;;39.65;28.60;;;;;;;;;;4887736;29;20428;-70
2021/12/16 17:46:37;;;;;;;34.70;27.27;;;;;;;;;;4903438;29;20153;-70
2021/12/16 17:49:06;;;;;;;31.30;25.73;;;;;;;;;;4889726;29;20507;-70
2021/12/16 17:51:32;;;;;;;30.48;20.48;;;;;;;;;;4904006;29;20089;-70
2021/12/16 17:54:03;;;;;;;25.85;20.70;;;;;;;;;;4886361;29;20047;-70
2021/12/16 17:56:30;;;;;;;31.95;24.45;;;;;;;;;;4888756;29;20040;-70
2021/12/16 17:58:59;;;;;;;38.30;23.73;;;;;;;;;;4886582;29;20071;-70
2021/12/16 18:01:30;;;;;;;33.67;24.75;;;;;;;;;;4878786;29;20041;-70
2021/12/16 18:03:58;;;;;;;37.33;26.90;;;;;;;;;;4903771;29;20054;-70
2021/12/16 18:06:29;;;;;;;34.92;25.42;;;;;;;;;;4887530;29;20404;-70
2021/12/16 18:09:08;;;;;;;33.13;25.20;;;;;;;;;;4897194;29;20521;-70
2021/12/16 18:11:37;;;;;;;34.15;27.10;;;;;;;;;;4881547;29;20037;-72
2021/12/16 18:14:31;;;;;;;53.72;32.53;;;;;;;;;;4889751;29;20568;-70
2021/12/16 18:17:03;;;;;;;74.38;40.45;;;;;;;;;;4889788;29;20397;-70
2021/12/16 18:19:37;;;;;;;49.90;32.75;;;;;;;;;;4882793;29;20068;-71
2021/12/16 18:22:07;;;;;;;59.92;34.45;;;;;;;;;;4879133;29;20040;-70
2021/12/16 18:24:55;;;;;;;74.22;38.88;;;;;;;;;;4888286;29;20055;-70
2021/12/16 18:27:27;;;;;;;71.28;35.53;;;;;;;;;;4886771;29;20092;-70
2021/12/16 18:29:57;;;;;;;49.42;30.10;;;;;;;;;;4888752;29;20052;-70
2021/12/16 18:32:31;;;;;;;52.25;30.95;;;;;;;;;;4890692;29;20120;-70
2021/12/16 18:34:59;;;;;;;55.67;32.97;;;;;;;;;;4889159;29;20049;-70
2021/12/16 18:37:25;;;;;;;61.92;32.35;;;;;;;;;;4889877;29;20036;-70
2021/12/16 18:39:53;;;;;;;63.92;34.15;;;;;;;;;;4890438;29;20041;-70
2021/12/16 18:42:24;;;;;;;43.00;27.38;;;;;;;;;;4888333;29;20055;-70
2021/12/16 18:44:54;;;;;;;51.30;30.63;;;;;;;;;;4893030;29;20040;-70
2021/12/16 18:47:46;;;;;;;42.03;28.42;;;;;;;;;;4891749;29;20494;-71
2021/12/16 18:50:41;;;;;;;43.85;29.77;;;;;;;;;;4890856;29;20040;-70